createdAt,value
2024-04-23T00:00:58.010Z,20.98
2024-04-23T00:01:58.027Z,20.98
2024-04-23T00:02:58.040Z,20.98
2024-04-23T00:03:58.079Z,20.97
2024-04-23T00:04:58.104Z,20.97
2024-04-23T00:05:58.118Z,20.97
2024-04-23T00:06:58.137Z,20.97
2024-04-23T00:07:58.255Z,20.97
2024-04-23T00:08:58.182Z,20.97
2024-04-23T00:09:58.216Z,20.97
2024-04-23T00:10:58.278Z,20.97
2024-04-23T00:11:58.275Z,20.96
2024-04-23T00:12:58.293Z,20.96
2024-04-23T00:13:58.397Z,20.96
2024-04-23T00:14:58.353Z,20.96
2024-04-23T00:15:58.373Z,20.96
2024-04-23T00:16:58.460Z,20.96
2024-04-23T00:17:58.558Z,20.96
2024-04-23T00:18:58.459Z,20.96
2024-04-23T00:19:58.590Z,20.96
2024-04-23T00:20:58.503Z,20.96
2024-04-23T00:21:58.542Z,20.96
2024-04-23T00:22:58.647Z,20.96
2024-04-23T00:23:58.587Z,20.96
2024-04-23T00:24:59.570Z,20.96
2024-04-23T00:25:58.703Z,20.96
2024-04-23T00:26:58.683Z,20.95
2024-04-23T00:27:59.133Z,20.96
2024-04-23T00:28:58.750Z,20.95
2024-04-23T00:29:58.730Z,20.95
2024-04-23T00:30:58.756Z,20.95
2024-04-23T00:31:59.023Z,20.95
2024-04-23T00:32:58.927Z,20.95
2024-04-23T00:33:58.828Z,20.95
2024-04-23T00:34:58.964Z,20.96
2024-04-23T00:35:58.893Z,20.95
2024-04-23T00:36:58.978Z,20.95
2024-04-23T00:37:58.950Z,20.94
2024-04-23T00:38:58.959Z,20.95
2024-04-23T00:39:58.991Z,20.95
2024-04-23T00:40:59.037Z,20.95
2024-04-23T00:41:59.054Z,20.94
2024-04-23T00:42:59.074Z,20.94
2024-04-23T00:43:59.183Z,20.94
2024-04-23T00:44:59.148Z,20.95
2024-04-23T00:45:59.180Z,20.95
2024-04-23T00:46:59.367Z,20.95
2024-04-23T00:47:59.359Z,20.94
2024-04-23T00:48:59.261Z,20.94
2024-04-23T00:49:59.384Z,20.94
2024-04-23T00:50:59.342Z,20.94
2024-04-23T00:51:59.362Z,20.94
2024-04-23T00:52:59.432Z,20.94
2024-04-23T00:53:59.420Z,20.94
2024-04-23T00:54:59.454Z,20.94
2024-04-23T00:55:59.554Z,20.94
2024-04-23T00:56:59.519Z,20.93
2024-04-23T00:57:59.538Z,20.94
2024-04-23T00:58:59.655Z,20.94
2024-04-23T00:59:59.609Z,20.93
2024-04-23T01:00:59.662Z,20.93
2024-04-23T01:01:59.726Z,20.93
2024-04-23T01:02:59.768Z,20.93
2024-04-23T01:03:59.767Z,20.94
2024-04-23T01:04:59.848Z,20.93
2024-04-23T01:06:00.573Z,20.93
2024-04-23T01:06:59.810Z,20.92
2024-04-23T01:07:59.858Z,20.93
2024-04-23T01:08:59.870Z,20.92
2024-04-23T01:09:59.905Z,20.93
2024-04-23T01:10:59.967Z,20.93
2024-04-23T01:11:59.987Z,20.93
2024-04-23T01:13:00.005Z,20.93
2024-04-23T01:14:00.123Z,20.93
2024-04-23T01:15:00.055Z,20.93
2024-04-23T01:16:00.093Z,20.93
2024-04-23T01:17:00.186Z,20.93
2024-04-23T01:18:00.684Z,20.94
2024-04-23T01:19:00.158Z,20.94
2024-04-23T01:20:00.620Z,20.94
2024-04-23T01:21:00.204Z,20.95
2024-04-23T01:22:00.212Z,20.96
2024-04-23T01:23:00.388Z,20.96
2024-04-23T01:24:00.265Z,20.97
2024-04-23T01:25:00.302Z,20.97
2024-04-23T01:26:00.423Z,20.98
2024-04-23T01:27:00.350Z,20.98
2024-04-23T01:28:00.609Z,20.98
2024-04-23T01:29:00.500Z,20.99
2024-04-23T01:30:00.519Z,20.99
2024-04-23T01:31:00.520Z,20.99
2024-04-23T01:32:00.608Z,21.01
2024-04-23T01:33:00.622Z,21.01
2024-04-23T01:34:00.498Z,21.02
2024-04-23T01:35:00.550Z,21.03
2024-04-23T01:36:00.542Z,21.03
2024-04-23T01:37:00.541Z,21.03
2024-04-23T01:38:00.675Z,21.04
2024-04-23T01:39:00.604Z,21.05
2024-04-23T01:40:00.598Z,21.05
2024-04-23T01:41:00.660Z,21.05
2024-04-23T01:42:00.698Z,21.06
2024-04-23T01:43:00.697Z,21.07
2024-04-23T01:44:00.691Z,21.08
2024-04-23T01:45:00.650Z,21.08
2024-04-23T01:46:00.718Z,21.09
2024-04-23T01:47:00.970Z,21.10
2024-04-23T01:48:00.853Z,21.10
2024-04-23T01:49:00.699Z,21.10
2024-04-23T01:50:00.783Z,21.12
2024-04-23T01:51:01.585Z,21.11
2024-04-23T01:52:00.724Z,21.12
2024-04-23T01:53:00.737Z,21.13
2024-04-23T01:54:00.742Z,21.14
2024-04-23T01:55:00.753Z,21.13
2024-04-23T01:56:00.784Z,21.14
2024-04-23T01:57:00.847Z,21.14
2024-04-23T01:58:00.767Z,21.15
2024-04-23T01:59:03.652Z,21.16
2024-04-23T02:00:00.797Z,21.17
2024-04-23T02:01:00.834Z,21.17
2024-04-23T02:02:00.906Z,21.18
2024-04-23T02:03:00.914Z,21.17
2024-04-23T02:04:00.797Z,21.18
2024-04-23T02:05:00.871Z,21.19
2024-04-23T02:06:00.792Z,21.19
2024-04-23T02:07:00.798Z,21.19
2024-04-23T02:08:00.886Z,21.19
2024-04-23T02:09:03.762Z,21.21
2024-04-23T02:10:00.804Z,21.21
2024-04-23T02:11:00.856Z,21.22
2024-04-23T02:12:00.808Z,21.22
2024-04-23T02:13:00.835Z,21.23
2024-04-23T02:14:00.842Z,21.23
2024-04-23T02:15:00.800Z,21.23
2024-04-23T02:16:00.806Z,21.23
2024-04-23T02:17:01.290Z,21.23
2024-04-23T02:18:00.896Z,21.24
2024-04-23T02:19:00.799Z,21.25
2024-04-23T02:20:00.911Z,21.25
2024-04-23T02:21:00.790Z,21.25
2024-04-23T02:22:00.805Z,21.25
2024-04-23T02:23:00.910Z,21.26
2024-04-23T02:24:00.805Z,21.26
2024-04-23T02:25:00.811Z,21.26
2024-04-23T02:26:00.936Z,21.25
2024-04-23T02:27:00.806Z,21.27
2024-04-23T02:28:00.884Z,21.26
2024-04-23T02:29:00.818Z,21.27
2024-04-23T02:30:00.882Z,21.27
2024-04-23T02:31:00.810Z,21.27
2024-04-23T02:32:00.849Z,21.27
2024-04-23T02:33:00.874Z,21.27
2024-04-23T02:34:00.810Z,21.27
2024-04-23T02:35:00.843Z,21.27
2024-04-23T02:36:00.821Z,21.27
2024-04-23T02:37:00.808Z,21.27
2024-04-23T02:38:00.850Z,21.27
2024-04-23T02:39:00.823Z,21.28
2024-04-23T02:40:03.746Z,21.27
2024-04-23T02:41:00.898Z,21.27
2024-04-23T02:42:00.872Z,21.28
2024-04-23T02:43:00.813Z,21.28
2024-04-23T02:44:00.849Z,21.28
2024-04-23T02:45:00.806Z,21.29
2024-04-23T02:46:00.820Z,21.28
2024-04-23T02:47:01.681Z,21.29
2024-04-23T02:48:00.936Z,21.29
2024-04-23T02:49:00.809Z,21.29
2024-04-23T02:50:01.108Z,21.29
2024-04-23T02:51:00.818Z,21.30
2024-04-23T02:52:00.834Z,21.29
2024-04-23T02:53:00.915Z,21.30
2024-04-23T02:54:00.947Z,21.29
2024-04-23T02:55:00.999Z,21.29
2024-04-23T02:56:01.108Z,21.29
2024-04-23T02:57:01.128Z,21.29
2024-04-23T02:58:01.219Z,21.30
2024-04-23T02:59:01.305Z,21.30
2024-04-23T03:00:01.350Z,21.30
2024-04-23T03:01:01.417Z,21.30
2024-04-23T03:02:01.582Z,21.31
2024-04-23T03:03:01.602Z,21.30
2024-04-23T03:04:01.607Z,21.30
2024-04-23T03:05:01.767Z,21.31
2024-04-23T03:06:01.735Z,21.31
2024-04-23T03:07:01.820Z,21.31
2024-04-23T03:08:02.705Z,21.31
2024-04-23T03:09:01.934Z,21.31
2024-04-23T03:10:02.164Z,21.32
2024-04-23T03:11:02.259Z,21.31
2024-04-23T03:12:02.151Z,21.31
2024-04-23T03:13:02.213Z,21.32
2024-04-23T03:14:02.343Z,21.32
2024-04-23T03:15:02.318Z,21.32
2024-04-23T03:16:04.115Z,21.32
2024-04-23T03:17:02.464Z,21.31
2024-04-23T03:18:02.488Z,21.32
2024-04-23T03:19:02.409Z,21.32
2024-04-23T03:20:02.460Z,21.32
2024-04-23T03:21:02.397Z,21.32
2024-04-23T03:22:02.398Z,21.33
2024-04-23T03:23:02.469Z,21.33
2024-04-23T03:24:02.392Z,21.32
2024-04-23T03:25:02.473Z,21.33
2024-04-23T03:26:02.498Z,21.33
2024-04-23T03:27:02.408Z,21.33
2024-04-23T03:28:02.395Z,21.33
2024-04-23T03:29:02.492Z,21.34
2024-04-23T03:30:02.392Z,21.34
2024-04-23T03:31:02.402Z,21.34
2024-04-23T03:32:02.848Z,21.34
2024-04-23T03:33:02.498Z,21.33
2024-04-23T03:34:02.406Z,21.34
2024-04-23T03:35:02.548Z,21.34
2024-04-23T03:36:02.401Z,21.34
2024-04-23T03:37:02.391Z,21.34
2024-04-23T03:38:02.537Z,21.34
2024-04-23T03:39:02.388Z,21.34
2024-04-23T03:40:02.392Z,21.34
2024-04-23T03:41:02.538Z,21.35
2024-04-23T03:42:02.431Z,21.35
2024-04-23T03:43:02.404Z,21.35
2024-04-23T03:44:02.637Z,21.35
2024-04-23T03:45:02.547Z,21.35
2024-04-23T03:46:02.620Z,21.35
2024-04-23T03:47:02.755Z,21.35
2024-04-23T03:48:02.804Z,21.35
2024-04-23T03:49:02.820Z,21.35
2024-04-23T03:50:03.002Z,21.34
2024-04-23T03:51:02.934Z,21.34
2024-04-23T03:52:03.001Z,21.34
2024-04-23T03:53:03.714Z,21.35
2024-04-23T03:54:03.119Z,21.35
2024-04-23T03:55:03.190Z,21.34
2024-04-23T03:56:03.381Z,21.35
2024-04-23T03:57:03.351Z,21.35
2024-04-23T03:58:03.389Z,21.35
2024-04-23T03:59:03.477Z,21.35
2024-04-23T04:00:03.511Z,21.35
2024-04-23T04:01:03.618Z,21.35
2024-04-23T04:02:03.735Z,21.35
2024-04-23T04:03:03.725Z,21.35
2024-04-23T04:04:03.859Z,21.36
2024-04-23T04:05:03.877Z,21.35
2024-04-23T04:06:03.908Z,21.36
2024-04-23T04:07:03.966Z,21.36
2024-04-23T04:08:04.135Z,21.37
2024-04-23T04:09:04.136Z,21.37
2024-04-23T04:10:04.171Z,21.36
2024-04-23T04:11:04.286Z,21.36
2024-04-23T04:12:04.301Z,21.37
2024-04-23T04:13:13.210Z,21.37
2024-04-23T04:14:05.530Z,21.37
2024-04-23T04:15:04.375Z,21.37
2024-04-23T04:16:04.394Z,21.37
2024-04-23T04:17:04.460Z,21.37
2024-04-23T04:18:04.468Z,21.37
2024-04-23T04:19:04.426Z,21.37
2024-04-23T04:20:04.495Z,21.37
2024-04-23T04:21:04.375Z,21.37
2024-04-23T04:22:04.451Z,21.37
2024-04-23T04:23:11.735Z,21.35
2024-04-23T04:24:11.688Z,21.36
2024-04-23T04:25:11.724Z,21.37
2024-04-23T04:26:11.745Z,21.37
2024-04-23T04:27:11.721Z,21.37
2024-04-23T04:28:11.760Z,21.37
2024-04-23T04:29:11.747Z,21.37
2024-04-23T04:30:11.798Z,21.38
2024-04-23T04:31:19.053Z,21.35
2024-04-23T04:32:19.177Z,21.36
2024-04-23T04:33:19.205Z,21.37
2024-04-23T04:34:21.768Z,21.37
2024-04-23T04:35:19.076Z,21.37
2024-04-23T04:36:19.079Z,21.37
2024-04-23T04:37:19.091Z,21.37
2024-04-23T04:38:19.071Z,21.38
2024-04-23T04:39:19.086Z,21.37
2024-04-23T04:40:19.101Z,21.37
2024-04-23T04:41:19.095Z,21.38
2024-04-23T04:42:19.080Z,21.38
2024-04-23T04:43:19.084Z,21.38
2024-04-23T04:44:19.074Z,21.38
2024-04-23T04:45:19.637Z,21.39
2024-04-23T04:46:19.631Z,21.38
2024-04-23T04:47:19.154Z,21.38
2024-04-23T04:48:19.133Z,21.38
2024-04-23T04:49:19.082Z,21.38
2024-04-23T04:50:19.267Z,21.38
2024-04-23T04:51:19.089Z,21.38
2024-04-23T04:52:19.114Z,21.39
2024-04-23T04:53:19.145Z,21.39
2024-04-23T04:54:19.162Z,21.39
2024-04-23T04:55:19.115Z,21.39
2024-04-23T04:56:19.117Z,21.39
2024-04-23T04:57:19.095Z,21.39
2024-04-23T04:58:19.117Z,21.40
2024-04-23T04:59:19.128Z,21.40
2024-04-23T05:00:19.119Z,21.40
2024-04-23T05:01:19.118Z,21.40
2024-04-23T05:02:19.147Z,21.40
2024-04-23T05:03:19.114Z,21.40
2024-04-23T05:04:19.169Z,21.40
2024-04-23T05:05:19.131Z,21.41
2024-04-23T05:06:19.154Z,21.41
2024-04-23T05:07:19.191Z,21.41
2024-04-23T05:08:19.125Z,21.40
2024-04-23T05:09:19.123Z,21.41
2024-04-23T05:10:19.118Z,21.41
2024-04-23T05:11:19.131Z,21.40
2024-04-23T05:12:19.164Z,21.41
2024-04-23T05:13:19.195Z,21.41
2024-04-23T05:14:19.124Z,21.42
2024-04-23T05:15:19.195Z,21.41
2024-04-23T05:16:19.279Z,21.41
2024-04-23T05:17:19.400Z,21.41
2024-04-23T05:18:19.417Z,21.42
2024-04-23T05:19:19.437Z,21.42
2024-04-23T05:20:19.499Z,21.41
2024-04-23T05:21:19.583Z,21.42
2024-04-23T05:22:19.610Z,21.41
2024-04-23T05:23:19.690Z,21.43
2024-04-23T05:24:19.741Z,21.43
2024-04-23T05:25:19.818Z,21.44
2024-04-23T05:26:19.894Z,21.42
2024-04-23T05:27:19.937Z,21.35
2024-04-23T05:28:20.011Z,21.39
2024-04-23T05:29:20.070Z,21.44
2024-04-23T05:30:20.132Z,21.49
2024-04-23T05:31:20.174Z,21.53
2024-04-23T05:32:20.708Z,21.57
2024-04-23T05:33:20.317Z,21.61
2024-04-23T05:34:20.272Z,21.65
2024-04-23T05:35:20.279Z,21.67
2024-04-23T05:36:20.313Z,21.72
2024-04-23T05:37:20.362Z,21.75
2024-04-23T05:38:20.411Z,21.77
2024-04-23T05:39:20.379Z,21.79
2024-04-23T05:40:20.380Z,21.82
2024-04-23T05:41:20.417Z,21.86
2024-04-23T05:42:20.488Z,21.88
2024-04-23T05:43:20.541Z,21.91
2024-04-23T05:44:23.368Z,21.92
2024-04-23T05:45:20.639Z,21.92
2024-04-23T05:46:20.601Z,21.80
2024-04-23T05:47:20.690Z,21.77
2024-04-23T05:48:20.697Z,21.62
2024-04-23T05:49:20.589Z,21.43
2024-04-23T05:50:26.112Z,21.36
2024-04-23T05:51:21.604Z,21.34
2024-04-23T05:52:29.519Z,21.35
2024-04-23T05:53:21.661Z,21.34
2024-04-23T05:54:20.602Z,21.33
2024-04-23T05:55:20.621Z,21.30
2024-04-23T05:56:20.626Z,21.28
2024-04-23T05:57:20.724Z,21.26
2024-04-23T05:58:20.606Z,21.23
2024-04-23T05:59:20.623Z,21.19
2024-04-23T06:00:21.152Z,21.15
2024-04-23T06:01:20.706Z,21.12
2024-04-23T06:02:20.630Z,21.10
2024-04-23T06:03:20.700Z,21.09
2024-04-23T06:04:20.643Z,21.07
2024-04-23T06:05:20.627Z,21.06
2024-04-23T06:06:20.692Z,21.04
2024-04-23T06:07:20.626Z,21.03
2024-04-23T06:08:20.718Z,21.02
2024-04-23T06:09:20.628Z,21.00
2024-04-23T06:10:20.641Z,21.00
2024-04-23T06:11:20.693Z,20.98
2024-04-23T06:12:20.673Z,20.96
2024-04-23T06:13:20.783Z,20.94
2024-04-23T06:14:20.751Z,20.95
2024-04-23T06:15:20.782Z,20.95
2024-04-23T06:16:20.843Z,20.93
2024-04-23T06:17:28.689Z,20.92
2024-04-23T06:18:21.966Z,20.90
2024-04-23T06:19:20.895Z,20.93
2024-04-23T06:20:20.894Z,21.01
2024-04-23T06:21:20.963Z,21.06
2024-04-23T06:22:20.908Z,21.10
2024-04-23T06:23:21.174Z,21.18
2024-04-23T06:24:20.928Z,21.27
2024-04-23T06:25:21.585Z,21.33
2024-04-23T06:26:20.890Z,21.40
2024-04-23T06:27:21.665Z,21.47
2024-04-23T06:28:20.894Z,21.53
2024-04-23T06:29:20.895Z,21.58
2024-04-23T06:30:20.964Z,21.62
2024-04-23T06:31:21.576Z,21.66
2024-04-23T06:32:23.152Z,21.70
2024-04-23T06:33:21.022Z,21.73
2024-04-23T06:34:21.656Z,21.77
2024-04-23T06:35:20.989Z,21.79
2024-04-23T06:36:21.003Z,21.83
2024-04-23T06:37:21.528Z,21.86
2024-04-23T06:38:21.036Z,21.89
2024-04-23T06:39:21.135Z,21.91
2024-04-23T06:40:21.161Z,21.94
2024-04-23T06:41:21.313Z,21.97
2024-04-23T06:42:21.270Z,21.99
2024-04-23T06:43:21.317Z,22.00
2024-04-23T06:44:21.341Z,21.96
2024-04-23T06:45:21.361Z,21.89
2024-04-23T06:46:21.372Z,21.82
2024-04-23T06:47:21.550Z,21.80
2024-04-23T06:48:21.490Z,21.82
2024-04-23T06:49:21.442Z,21.85
2024-04-23T06:50:21.473Z,21.87
2024-04-23T06:51:21.495Z,21.89
2024-04-23T06:52:22.173Z,21.91
2024-04-23T06:53:21.526Z,21.94
2024-04-23T06:54:21.603Z,21.96
2024-04-23T06:55:21.526Z,21.99
2024-04-23T06:56:21.558Z,22.01
2024-04-23T06:57:21.553Z,22.04
2024-04-23T06:58:24.318Z,22.05
2024-04-23T06:59:21.563Z,22.07
2024-04-23T07:00:21.549Z,22.10
2024-04-23T07:01:21.677Z,22.12
2024-04-23T07:02:21.687Z,22.13
2024-04-23T07:03:21.602Z,22.07
2024-04-23T07:04:21.558Z,21.99
2024-04-23T07:05:21.560Z,21.91
2024-04-23T07:06:21.569Z,21.83
2024-04-23T07:07:21.565Z,21.82
2024-04-23T07:08:21.650Z,21.83
2024-04-23T07:09:21.574Z,21.87
2024-04-23T07:10:22.185Z,21.89
2024-04-23T07:11:21.695Z,21.92
2024-04-23T07:12:21.571Z,21.95
2024-04-23T07:13:21.606Z,21.97
2024-04-23T07:14:21.569Z,22.01
2024-04-23T07:15:22.551Z,22.05
2024-04-23T07:16:21.568Z,22.05
2024-04-23T07:17:21.632Z,22.05
2024-04-23T07:18:21.663Z,22.03
2024-04-23T07:19:21.572Z,22.07
2024-04-23T07:20:21.651Z,22.07
2024-04-23T07:21:21.573Z,22.09
2024-04-23T07:22:21.628Z,22.12
2024-04-23T07:23:21.578Z,22.15
2024-04-23T07:24:21.606Z,22.15
2024-04-23T07:25:24.666Z,22.11
2024-04-23T07:26:21.598Z,22.05
2024-04-23T07:27:22.191Z,21.97
2024-04-23T07:28:21.583Z,21.88
2024-04-23T07:29:21.591Z,21.81
2024-04-23T07:30:21.572Z,21.73
2024-04-23T07:31:21.600Z,21.65
2024-04-23T07:32:21.624Z,21.58
2024-04-23T07:33:21.742Z,21.51
2024-04-23T07:34:21.582Z,21.45
2024-04-23T07:35:21.718Z,21.41
2024-04-23T07:36:21.583Z,21.37
2024-04-23T07:37:21.586Z,21.34
2024-04-23T07:38:21.590Z,21.30
2024-04-23T07:39:21.653Z,21.27
2024-04-23T07:40:22.186Z,21.25
2024-04-23T07:41:21.604Z,21.23
2024-04-23T07:42:21.605Z,21.17
2024-04-23T07:43:23.349Z,21.17
2024-04-23T07:44:21.620Z,21.16
2024-04-23T07:45:21.600Z,21.15
2024-04-23T07:46:21.634Z,21.14
2024-04-23T07:47:21.691Z,21.13
2024-04-23T07:48:21.701Z,21.09
2024-04-23T07:49:21.591Z,21.05
2024-04-23T07:50:21.665Z,21.04
2024-04-23T07:51:21.598Z,21.03
2024-04-23T07:52:21.593Z,21.09
2024-04-23T07:53:21.693Z,21.15
2024-04-23T07:54:21.628Z,21.22
2024-04-23T07:55:21.604Z,21.29
2024-04-23T07:56:21.620Z,21.36
2024-04-23T07:57:21.600Z,21.42
2024-04-23T07:58:21.597Z,21.50
2024-04-23T07:59:21.689Z,21.56
2024-04-23T08:00:21.604Z,21.62
2024-04-23T08:01:21.619Z,21.67
2024-04-23T08:02:22.796Z,21.71
2024-04-23T08:03:21.708Z,21.77
2024-04-23T08:04:21.707Z,21.82
2024-04-23T08:05:21.611Z,21.87
2024-04-23T08:06:21.621Z,21.90
2024-04-23T08:07:21.614Z,21.92
2024-04-23T08:08:21.606Z,21.95
2024-04-23T08:09:21.614Z,21.97
2024-04-23T08:10:21.685Z,22.00
2024-04-23T08:11:21.698Z,22.02
2024-04-23T08:12:21.622Z,22.01
2024-04-23T08:13:21.617Z,21.98
2024-04-23T08:14:21.627Z,21.93
2024-04-23T08:15:21.690Z,21.89
2024-04-23T08:16:21.637Z,21.85
2024-04-23T08:17:21.750Z,21.77
2024-04-23T08:18:21.730Z,21.71
2024-04-23T08:19:21.627Z,21.52
2024-04-23T08:20:22.201Z,21.28
2024-04-23T08:21:21.638Z,21.07
2024-04-23T08:22:21.694Z,21.04
2024-04-23T08:23:21.718Z,21.11
2024-04-23T08:24:21.671Z,21.18
2024-04-23T08:25:21.658Z,21.22
2024-04-23T08:26:21.703Z,21.26
2024-04-23T08:27:21.735Z,21.34
2024-04-23T08:28:21.795Z,21.43
2024-04-23T08:29:21.923Z,21.50
2024-04-23T08:30:21.912Z,21.57
2024-04-23T08:31:21.980Z,21.63
2024-04-23T08:32:22.119Z,21.70
2024-04-23T08:33:22.086Z,21.75
2024-04-23T08:34:22.088Z,21.80
2024-04-23T08:35:22.171Z,21.85
2024-04-23T08:36:22.098Z,21.88
2024-04-23T08:37:22.118Z,21.91
2024-04-23T08:38:22.140Z,21.95
2024-04-23T08:39:22.185Z,21.98
2024-04-23T08:40:22.281Z,22.02
2024-04-23T08:41:22.182Z,22.05
2024-04-23T08:42:22.227Z,22.08
2024-04-23T08:43:22.287Z,22.10
2024-04-23T08:44:22.419Z,22.14
2024-04-23T08:45:22.423Z,22.15
2024-04-23T08:46:22.519Z,22.18
2024-04-23T08:47:22.750Z,22.19
2024-04-23T08:48:22.696Z,22.21
2024-04-23T08:49:22.708Z,22.22
2024-04-23T08:50:22.887Z,22.24
2024-04-23T08:51:22.905Z,22.26
2024-04-23T08:52:23.828Z,22.27
2024-04-23T08:53:22.827Z,22.28
2024-04-23T08:54:22.857Z,22.29
2024-04-23T08:55:22.833Z,22.25
2024-04-23T08:56:22.827Z,22.20
2024-04-23T08:57:22.827Z,22.14
2024-04-23T08:58:22.862Z,22.07
2024-04-23T08:59:22.890Z,22.01
2024-04-23T09:00:23.727Z,21.95
2024-04-23T09:01:22.877Z,21.90
2024-04-23T09:02:22.902Z,21.87
2024-04-23T09:03:22.850Z,21.81
2024-04-23T09:04:22.925Z,21.77
2024-04-23T09:05:24.169Z,21.72
2024-04-23T09:06:23.047Z,21.67
2024-04-23T09:07:28.075Z,21.63
2024-04-23T09:08:24.094Z,21.59
2024-04-23T09:09:23.177Z,21.55
2024-04-23T09:10:23.108Z,21.51
2024-04-23T09:11:23.185Z,21.50
2024-04-23T09:12:23.113Z,21.46
2024-04-23T09:13:23.109Z,21.43
2024-04-23T09:14:23.120Z,21.39
2024-04-23T09:15:23.155Z,21.38
2024-04-23T09:16:23.114Z,21.42
2024-04-23T09:17:23.232Z,21.46
2024-04-23T09:18:23.200Z,21.51
2024-04-23T09:19:23.217Z,21.55
2024-04-23T09:20:23.379Z,21.59
2024-04-23T09:21:24.237Z,21.62
2024-04-23T09:22:23.368Z,21.65
2024-04-23T09:23:23.414Z,21.68
2024-04-23T09:24:23.464Z,21.72
2024-04-23T09:25:24.331Z,21.73
2024-04-23T09:26:23.571Z,21.75
2024-04-23T09:27:23.558Z,21.77
2024-04-23T09:28:24.568Z,21.78
2024-04-23T09:29:23.697Z,21.79
2024-04-23T09:30:26.225Z,21.81
2024-04-23T09:31:23.904Z,21.82
2024-04-23T09:32:23.978Z,21.82
2024-04-23T09:33:24.788Z,21.83
2024-04-23T09:34:24.442Z,21.85
2024-04-23T09:35:24.104Z,21.84
2024-04-23T09:36:24.091Z,21.85
2024-04-23T09:37:24.112Z,21.85
2024-04-23T09:38:24.111Z,21.85
2024-04-23T09:39:24.154Z,21.86
2024-04-23T09:40:24.179Z,21.85
2024-04-23T09:41:24.217Z,21.85
2024-04-23T09:42:24.267Z,21.85
2024-04-23T09:43:24.291Z,21.85
2024-04-23T09:44:24.318Z,21.84
2024-04-23T09:45:24.429Z,21.85
2024-04-23T09:46:24.439Z,21.85
2024-04-23T09:47:24.982Z,21.85
2024-04-23T09:48:24.613Z,21.84
2024-04-23T09:49:24.507Z,21.85
2024-04-23T09:50:24.510Z,21.85
2024-04-23T09:51:24.552Z,21.84
2024-04-23T09:52:27.042Z,21.83
2024-04-23T09:53:25.594Z,21.82
2024-04-23T09:54:24.584Z,21.82
2024-04-23T09:55:24.579Z,21.82
2024-04-23T09:56:24.658Z,21.83
2024-04-23T09:57:24.590Z,21.82
2024-04-23T09:58:28.108Z,21.82
2024-04-23T09:59:24.588Z,21.81
2024-04-23T10:00:24.589Z,21.81
2024-04-23T10:01:24.607Z,21.81
2024-04-23T10:02:24.665Z,21.81
2024-04-23T10:03:24.693Z,21.80
2024-04-23T10:04:26.967Z,21.80
2024-04-23T10:05:24.868Z,21.80
2024-04-23T10:06:24.952Z,21.80
2024-04-23T10:07:24.870Z,21.80
2024-04-23T10:08:24.924Z,21.79
2024-04-23T10:09:24.966Z,21.78
2024-04-23T10:10:25.016Z,21.79
2024-04-23T10:11:25.116Z,21.78
2024-04-23T10:12:25.706Z,21.69
2024-04-23T10:13:25.135Z,21.47
2024-04-23T10:14:25.245Z,21.21
2024-04-23T10:15:25.206Z,21.12
2024-04-23T10:16:25.219Z,21.13
2024-04-23T10:17:25.374Z,21.07
2024-04-23T10:18:25.344Z,21.12
2024-04-23T10:19:25.251Z,21.15
2024-04-23T10:20:25.277Z,21.17
2024-04-23T10:21:25.338Z,21.21
2024-04-23T10:22:25.386Z,21.24
2024-04-23T10:23:25.300Z,21.26
2024-04-23T10:24:25.305Z,21.28
2024-04-23T10:25:25.321Z,21.29
2024-04-23T10:26:25.375Z,21.29
2024-04-23T10:27:25.374Z,21.31
2024-04-23T10:28:25.410Z,21.32
2024-04-23T10:29:25.457Z,21.31
2024-04-23T10:30:25.486Z,21.32
2024-04-23T10:31:25.499Z,21.33
2024-04-23T10:32:25.629Z,21.33
2024-04-23T10:33:25.689Z,21.33
2024-04-23T10:34:25.581Z,21.33
2024-04-23T10:35:25.583Z,21.33
2024-04-23T10:36:25.598Z,21.34
2024-04-23T10:37:25.692Z,21.38
2024-04-23T10:38:25.806Z,21.43
2024-04-23T10:39:25.912Z,21.48
2024-04-23T10:40:25.904Z,21.53
2024-04-23T10:41:25.950Z,21.58
2024-04-23T10:42:25.968Z,21.63
2024-04-23T10:43:26.009Z,21.68
2024-04-23T10:44:26.057Z,21.73
2024-04-23T10:45:26.098Z,21.77
2024-04-23T10:46:26.103Z,21.81
2024-04-23T10:47:26.202Z,21.86
2024-04-23T10:48:26.284Z,21.89
2024-04-23T10:49:26.131Z,21.93
2024-04-23T10:50:26.176Z,21.96
2024-04-23T10:51:26.249Z,21.99
2024-04-23T10:52:26.164Z,22.01
2024-04-23T10:53:26.204Z,22.04
2024-04-23T10:54:26.272Z,22.06
2024-04-23T10:55:26.251Z,22.08
2024-04-23T10:56:26.255Z,22.11
2024-04-23T10:57:26.312Z,22.12
2024-04-23T10:58:26.361Z,22.14
2024-04-23T10:59:29.870Z,22.15
2024-04-23T11:00:26.510Z,22.17
2024-04-23T11:01:26.515Z,22.16
2024-04-23T11:02:26.650Z,22.17
2024-04-23T11:03:26.585Z,22.19
2024-04-23T11:04:26.571Z,22.20
2024-04-23T11:05:26.519Z,22.20
2024-04-23T11:06:26.408Z,22.17
2024-04-23T11:07:27.255Z,22.16
2024-04-23T11:08:26.446Z,22.15
2024-04-23T11:09:26.417Z,22.18
2024-04-23T11:10:26.439Z,22.21
2024-04-23T11:11:26.680Z,22.21
2024-04-23T11:12:26.410Z,22.22
2024-04-23T11:13:26.405Z,22.23
2024-04-23T11:14:26.400Z,22.24
2024-04-23T11:15:26.403Z,22.24
2024-04-23T11:16:26.461Z,22.24
2024-04-23T11:17:26.557Z,22.26
2024-04-23T11:18:26.595Z,22.27
2024-04-23T11:19:26.406Z,22.28
2024-04-23T11:20:26.402Z,22.28
2024-04-23T11:21:26.421Z,22.30
2024-04-23T11:22:26.414Z,22.30
2024-04-23T11:23:26.407Z,22.29
2024-04-23T11:24:26.473Z,22.30
2024-04-23T11:25:26.422Z,22.31
2024-04-23T11:26:26.422Z,22.33
2024-04-23T11:27:26.427Z,22.32
2024-04-23T11:28:26.485Z,22.33
2024-04-23T11:29:26.554Z,22.34
2024-04-23T11:30:26.671Z,22.35
2024-04-23T11:31:26.679Z,22.35
2024-04-23T11:32:26.802Z,22.36
2024-04-23T11:33:26.875Z,22.36
2024-04-23T11:34:26.877Z,22.37
2024-04-23T11:35:27.042Z,22.37
2024-04-23T11:36:27.156Z,22.38
2024-04-23T11:37:27.124Z,22.38
2024-04-23T11:38:27.139Z,22.38
2024-04-23T11:39:27.194Z,22.38
2024-04-23T11:40:27.251Z,22.39
2024-04-23T11:41:27.788Z,22.40
2024-04-23T11:42:27.387Z,22.39
2024-04-23T11:43:27.460Z,22.39
2024-04-23T11:44:27.519Z,22.39
2024-04-23T11:45:27.566Z,22.39
2024-04-23T11:46:27.651Z,22.39
2024-04-23T11:47:29.107Z,22.39
2024-04-23T11:48:27.780Z,22.38
2024-04-23T11:49:27.868Z,22.37
2024-04-23T11:50:27.875Z,22.38
2024-04-23T11:51:27.948Z,22.38
2024-04-23T11:52:27.990Z,22.38
2024-04-23T11:53:28.075Z,22.38
2024-04-23T11:54:28.135Z,22.38
2024-04-23T11:55:28.192Z,22.40
2024-04-23T11:56:28.322Z,22.40
2024-04-23T11:57:28.309Z,22.40
2024-04-23T11:58:28.382Z,22.38
2024-04-23T11:59:28.434Z,22.39
2024-04-23T12:00:28.545Z,22.40
2024-04-23T12:01:28.571Z,22.39
2024-04-23T12:02:28.633Z,22.38
2024-04-23T12:03:28.711Z,22.39
2024-04-23T12:04:28.845Z,22.39
2024-04-23T12:05:28.972Z,22.39
2024-04-23T12:06:29.062Z,22.39
2024-04-23T12:07:29.020Z,22.38
2024-04-23T12:08:29.042Z,22.37
2024-04-23T12:09:29.188Z,22.37
2024-04-23T12:10:29.265Z,22.37
2024-04-23T12:11:29.280Z,22.37
2024-04-23T12:12:29.313Z,22.37
2024-04-23T12:13:29.376Z,22.37
2024-04-23T12:14:29.794Z,22.37
2024-04-23T12:15:29.510Z,22.37
2024-04-23T12:16:29.568Z,22.36
2024-04-23T12:17:29.705Z,22.35
2024-04-23T12:18:29.834Z,22.36
2024-04-23T12:19:29.782Z,22.35
2024-04-23T12:20:29.847Z,22.35
2024-04-23T12:21:29.920Z,22.34
2024-04-23T12:22:29.992Z,22.34
2024-04-23T12:23:30.032Z,22.34
2024-04-23T12:24:31.130Z,22.33
2024-04-23T12:25:30.171Z,22.33
2024-04-23T12:26:30.237Z,22.32
2024-04-23T12:27:30.302Z,22.32
2024-04-23T12:28:30.368Z,22.31
2024-04-23T12:29:30.482Z,22.31
2024-04-23T12:30:30.494Z,22.30
2024-04-23T12:31:30.540Z,22.30
2024-04-23T12:32:30.735Z,22.30
2024-04-23T12:33:30.701Z,22.29
2024-04-23T12:34:30.698Z,22.29
2024-04-23T12:35:30.766Z,22.28
2024-04-23T12:36:30.800Z,22.28
2024-04-23T12:37:30.876Z,22.28
2024-04-23T12:38:30.916Z,22.28
2024-04-23T12:39:30.968Z,22.27
2024-04-23T12:40:31.023Z,22.27
2024-04-23T12:41:31.052Z,22.27
2024-04-23T12:42:31.066Z,22.26
2024-04-23T12:43:31.108Z,22.25
2024-04-23T12:44:31.125Z,22.25
2024-04-23T12:45:31.150Z,22.25
2024-04-23T12:46:31.149Z,22.24
2024-04-23T12:47:31.244Z,22.24
2024-04-23T12:48:31.243Z,22.24
2024-04-23T12:49:31.191Z,22.23
2024-04-23T12:50:31.818Z,22.23
2024-04-23T12:51:31.242Z,22.22
2024-04-23T12:52:31.386Z,22.22
2024-04-23T12:53:31.264Z,22.22